createdAt,value
2024-01-26T00:01:42.434Z,5.61
2024-01-26T00:04:10.631Z,5.62
2024-01-26T00:06:38.844Z,5.50
2024-01-26T00:09:12.174Z,5.66
2024-01-26T00:11:40.745Z,5.60
2024-01-26T00:14:09.250Z,5.63
2024-01-26T00:16:40.758Z,5.69
2024-01-26T00:19:09.633Z,5.69
2024-01-26T00:21:38.950Z,5.69
2024-01-26T00:24:07.121Z,5.74
2024-01-26T00:26:35.178Z,5.78
2024-01-26T00:29:03.101Z,5.84
2024-01-26T00:31:31.058Z,5.87
2024-01-26T00:34:00.570Z,5.86
2024-01-26T00:36:28.745Z,5.88
2024-01-26T00:38:56.655Z,6.07
2024-01-26T00:41:25.033Z,6.01
2024-01-26T00:43:53.098Z,6.11
2024-01-26T00:46:21.195Z,6.11
2024-01-26T00:48:49.700Z,6.10
2024-01-26T00:51:19.276Z,6.17
2024-01-26T00:53:47.342Z,6.11
2024-01-26T00:56:15.696Z,6.18
2024-01-26T00:58:43.650Z,6.27
2024-01-26T01:01:11.865Z,6.22
2024-01-26T01:03:39.936Z,5.95
2024-01-26T01:06:07.938Z,6.08
2024-01-26T01:08:37.386Z,6.12
2024-01-26T01:11:07.281Z,5.84
2024-01-26T01:13:36.040Z,6.13
2024-01-26T01:16:04.178Z,6.14
2024-01-26T01:18:32.528Z,5.92
2024-01-26T01:21:00.877Z,6.10
2024-01-26T01:23:28.831Z,6.06
2024-01-26T01:25:58.260Z,6.09
2024-01-26T01:28:26.204Z,6.05
2024-01-26T01:30:54.174Z,6.32
2024-01-26T01:33:22.283Z,6.22
2024-01-26T01:35:50.370Z,6.17
2024-01-26T01:38:18.366Z,6.18
2024-01-26T01:40:46.996Z,6.20
2024-01-26T01:43:19.234Z,6.19
2024-01-26T01:45:47.300Z,6.16
2024-01-26T01:48:15.495Z,6.16
2024-01-26T01:50:44.424Z,6.22
2024-01-26T01:53:13.738Z,6.21
2024-01-26T01:55:43.573Z,6.21
2024-01-26T01:58:12.073Z,6.23
2024-01-26T02:00:42.561Z,6.24
2024-01-26T02:03:10.896Z,6.22
2024-01-26T02:05:39.024Z,6.12
2024-01-26T02:08:07.540Z,6.22
2024-01-26T02:10:35.507Z,6.22
2024-01-26T02:13:04.920Z,6.27
2024-01-26T02:15:32.954Z,6.13
2024-01-26T02:18:02.403Z,6.18
2024-01-26T02:20:38.858Z,6.21
2024-01-26T02:23:22.772Z,6.14
2024-01-26T02:25:50.738Z,6.17
2024-01-26T02:28:18.783Z,6.17
2024-01-26T02:30:47.126Z,6.20
2024-01-26T02:33:15.307Z,6.23
2024-01-26T02:35:44.278Z,6.16
2024-01-26T02:38:12.362Z,6.17
2024-01-26T02:40:41.761Z,5.81
2024-01-26T02:43:09.811Z,6.34
2024-01-26T02:45:37.912Z,6.15
2024-01-26T02:48:06.528Z,6.18
2024-01-26T02:50:35.737Z,6.14
2024-01-26T02:53:03.838Z,6.07
2024-01-26T02:55:32.050Z,6.12
2024-01-26T02:58:01.368Z,5.89
2024-01-26T03:00:29.320Z,6.06
2024-01-26T03:02:57.827Z,6.13
2024-01-26T03:05:25.924Z,6.13
2024-01-26T03:07:53.919Z,6.13
2024-01-26T03:10:21.950Z,6.13
2024-01-26T03:12:49.996Z,6.13
2024-01-26T03:15:19.694Z,5.99
2024-01-26T03:17:47.862Z,6.10
2024-01-26T03:20:17.708Z,5.95
2024-01-26T03:22:45.932Z,6.06
2024-01-26T03:25:15.079Z,6.13
2024-01-26T03:27:43.069Z,6.16
2024-01-26T03:30:12.260Z,6.21
2024-01-26T03:32:41.782Z,6.27
2024-01-26T03:35:10.849Z,6.19
2024-01-26T03:37:39.852Z,6.14
2024-01-26T03:40:09.113Z,6.19
2024-01-26T03:42:37.060Z,6.02
2024-01-26T03:45:05.882Z,6.14
2024-01-26T03:47:33.885Z,6.18
2024-01-26T03:50:05.721Z,6.15
2024-01-26T03:52:33.828Z,6.27
2024-01-26T03:55:02.439Z,6.26
2024-01-26T03:57:30.493Z,6.26
2024-01-26T03:59:58.464Z,6.23
2024-01-26T04:02:26.517Z,6.29
2024-01-26T04:04:54.568Z,6.22
2024-01-26T04:07:23.916Z,6.22
2024-01-26T04:09:51.826Z,6.27
2024-01-26T04:12:21.991Z,6.27
2024-01-26T04:14:50.718Z,6.29
2024-01-26T04:17:18.681Z,6.27
2024-01-26T04:19:46.759Z,6.32
2024-01-26T04:22:14.867Z,6.32
2024-01-26T04:24:44.224Z,6.34
2024-01-26T04:27:12.226Z,6.39
2024-01-26T04:29:40.247Z,6.34
2024-01-26T04:32:08.579Z,6.36
2024-01-26T04:34:39.083Z,6.35
2024-01-26T04:37:07.310Z,6.32
2024-01-26T04:39:35.320Z,6.37
2024-01-26T04:42:05.212Z,6.26
2024-01-26T04:44:33.271Z,6.44
2024-01-26T04:47:01.301Z,6.48
2024-01-26T04:49:29.266Z,6.50
2024-01-26T04:51:57.172Z,6.50
2024-01-26T04:54:25.211Z,6.48
2024-01-26T04:56:53.360Z,6.52
2024-01-26T04:59:22.796Z,6.45
2024-01-26T05:01:50.734Z,6.60
2024-01-26T05:04:18.795Z,6.56
2024-01-26T05:06:46.955Z,6.55
2024-01-26T05:09:15.742Z,6.58
2024-01-26T05:11:43.826Z,6.59
2024-01-26T05:14:11.772Z,6.19
2024-01-26T05:16:41.134Z,6.59
2024-01-26T05:19:09.232Z,6.75
2024-01-26T05:21:37.452Z,6.53
2024-01-26T05:24:06.133Z,6.70
2024-01-26T05:26:34.902Z,6.72
2024-01-26T05:29:02.806Z,6.69
2024-01-26T05:31:30.666Z,6.70
2024-01-26T05:34:00.075Z,6.76
2024-01-26T05:36:28.165Z,6.73
2024-01-26T05:38:56.233Z,6.80
2024-01-26T05:41:24.256Z,6.81
2024-01-26T05:43:52.173Z,6.79
2024-01-26T05:46:20.108Z,6.78
2024-01-26T05:48:48.141Z,6.72
2024-01-26T05:51:17.666Z,6.71
2024-01-26T05:53:45.631Z,6.73
2024-01-26T05:56:13.570Z,6.75
2024-01-26T05:58:41.445Z,6.74
2024-01-26T06:01:09.491Z,6.63
2024-01-26T06:03:37.595Z,6.69
2024-01-26T06:06:06.218Z,6.70
2024-01-26T06:08:35.562Z,6.72
2024-01-26T06:11:04.261Z,6.71
2024-01-26T06:13:32.330Z,6.66
2024-01-26T06:16:00.722Z,6.75
2024-01-26T06:18:28.808Z,6.87
2024-01-26T06:20:56.890Z,6.97
2024-01-26T06:23:24.917Z,6.73
2024-01-26T06:25:54.502Z,6.90
2024-01-26T06:28:22.425Z,6.87
2024-01-26T06:30:50.956Z,6.83
2024-01-26T06:33:19.631Z,6.80
2024-01-26T06:35:48.061Z,6.76
2024-01-26T06:38:16.079Z,6.69
2024-01-26T06:40:45.868Z,6.74
2024-01-26T06:43:17.661Z,6.96
2024-01-26T06:45:46.022Z,6.88
2024-01-26T06:48:14.360Z,7.05
2024-01-26T06:50:42.633Z,7.16
2024-01-26T06:53:11.556Z,7.20
2024-01-26T06:55:39.663Z,7.30
2024-01-26T06:58:07.574Z,7.32
2024-01-26T07:00:36.898Z,7.51
2024-01-26T07:03:05.452Z,7.55
2024-01-26T07:05:33.633Z,7.50
2024-01-26T07:08:01.647Z,7.62
2024-01-26T07:10:30.131Z,7.54
2024-01-26T07:12:58.043Z,7.57
2024-01-26T07:15:26.664Z,7.64
2024-01-26T07:17:56.116Z,7.37
2024-01-26T07:20:24.686Z,7.58
2024-01-26T07:22:52.760Z,7.57
2024-01-26T07:25:21.283Z,7.74
2024-01-26T07:27:49.490Z,7.67
2024-01-26T07:30:18.778Z,7.71
2024-01-26T07:32:47.457Z,7.67
2024-01-26T07:35:17.085Z,7.72
2024-01-26T07:37:45.254Z,7.69
2024-01-26T07:40:14.067Z,7.82
2024-01-26T07:42:42.031Z,7.78
2024-01-26T07:45:11.825Z,7.78
2024-01-26T07:47:39.913Z,7.80
2024-01-26T07:50:08.879Z,7.80
2024-01-26T07:52:39.167Z,7.84
2024-01-26T07:55:07.201Z,7.91
2024-01-26T07:57:35.283Z,7.88
2024-01-26T08:00:03.274Z,7.95
2024-01-26T08:02:32.931Z,7.93
2024-01-26T08:05:01.444Z,8.01
2024-01-26T08:07:29.688Z,7.95
2024-01-26T08:09:59.092Z,7.98
2024-01-26T08:12:38.467Z,8.06
2024-01-26T08:15:13.081Z,8.01
2024-01-26T08:17:43.424Z,8.01
2024-01-26T08:20:13.467Z,8.01
2024-01-26T08:22:41.817Z,8.06
2024-01-26T08:25:12.248Z,8.02
2024-01-26T08:27:40.851Z,7.88
2024-01-26T08:30:11.193Z,8.00
2024-01-26T08:32:39.353Z,8.07
2024-01-26T08:35:11.068Z,7.67
2024-01-26T08:37:39.863Z,7.63
2024-01-26T08:40:10.897Z,8.12
2024-01-26T08:42:40.588Z,8.24
2024-01-26T08:45:09.940Z,8.19
2024-01-26T08:47:38.318Z,8.04
2024-01-26T08:50:07.695Z,8.07
2024-01-26T08:52:36.769Z,8.00
2024-01-26T08:55:05.434Z,7.99
2024-01-26T08:57:33.469Z,8.02
2024-01-26T09:00:05.590Z,7.71
2024-01-26T09:02:34.168Z,8.03
2024-01-26T09:05:03.355Z,8.07
2024-01-26T09:07:32.068Z,8.18
2024-01-26T09:10:00.149Z,8.23
2024-01-26T09:12:28.082Z,8.28
2024-01-26T09:14:56.207Z,8.31
2024-01-26T09:17:26.034Z,8.34
2024-01-26T09:19:54.159Z,8.34
2024-01-26T09:22:22.485Z,8.37
2024-01-26T09:24:50.469Z,8.39
2024-01-26T09:27:18.556Z,8.23
2024-01-26T09:29:46.810Z,8.31
2024-01-26T09:32:14.987Z,8.30
2024-01-26T09:34:45.516Z,8.33
2024-01-26T09:37:13.564Z,8.40
2024-01-26T09:39:41.526Z,8.41
2024-01-26T09:42:13.690Z,8.36
2024-01-26T09:44:40.790Z,8.20
2024-01-26T09:47:10.013Z,8.34
2024-01-26T09:49:40.730Z,8.49
2024-01-26T09:52:12.296Z,8.49
2024-01-26T09:54:40.859Z,8.69
2024-01-26T09:57:12.397Z,8.63
2024-01-26T09:59:40.445Z,8.76
2024-01-26T10:02:09.359Z,8.54
2024-01-26T10:04:37.310Z,8.66
2024-01-26T10:07:05.754Z,8.92
2024-01-26T10:09:36.147Z,8.95
2024-01-26T10:12:04.421Z,8.87
2024-01-26T10:14:32.754Z,8.91
2024-01-26T10:17:01.550Z,8.74
2024-01-26T10:19:31.075Z,8.99
2024-01-26T10:22:00.822Z,9.02
2024-01-26T10:24:30.051Z,9.00
2024-01-26T10:26:59.640Z,9.02
2024-01-26T10:29:28.046Z,9.01
2024-01-26T10:31:56.169Z,9.22
2024-01-26T10:34:25.610Z,9.11
2024-01-26T10:37:00.119Z,9.42
2024-01-26T10:39:30.706Z,9.45
2024-01-26T10:42:06.010Z,9.50
2024-01-26T10:44:39.271Z,9.49
2024-01-26T10:47:10.363Z,9.56
2024-01-26T10:49:39.278Z,9.71
2024-01-26T10:52:08.686Z,9.70
2024-01-26T10:54:37.344Z,9.72
2024-01-26T10:57:07.067Z,9.78
2024-01-26T10:59:35.288Z,9.69
2024-01-26T11:02:03.733Z,9.76
2024-01-26T11:04:33.233Z,9.88
2024-01-26T11:07:02.286Z,9.83
2024-01-26T11:09:36.167Z,9.37
2024-01-26T11:12:04.348Z,9.97
2024-01-26T11:14:35.156Z,9.98
2024-01-26T11:17:13.707Z,10.22
2024-01-26T11:19:50.977Z,10.15
2024-01-26T11:22:21.531Z,10.18
2024-01-26T11:24:49.533Z,10.02
2024-01-26T11:27:17.688Z,10.24
2024-01-26T11:29:48.575Z,10.30
2024-01-26T11:32:19.222Z,10.23
2024-01-26T11:34:59.549Z,10.25
2024-01-26T11:37:29.579Z,10.16
2024-01-26T11:39:58.210Z,10.27
2024-01-26T11:42:26.660Z,10.33
2024-01-26T11:45:09.529Z,9.92
2024-01-26T11:47:39.835Z,10.45
2024-01-26T11:50:09.568Z,10.41
2024-01-26T11:52:38.041Z,10.50
2024-01-26T11:55:13.363Z,10.58
2024-01-26T11:57:41.851Z,10.56
2024-01-26T12:00:14.018Z,10.49
2024-01-26T12:02:42.668Z,10.59
2024-01-26T12:05:10.716Z,10.55
2024-01-26T12:07:39.806Z,10.69
2024-01-26T12:10:14.060Z,10.65
2024-01-26T12:12:42.423Z,10.64
2024-01-26T12:15:13.106Z,9.76
2024-01-26T12:17:41.595Z,9.49
2024-01-26T12:20:12.357Z,9.22
2024-01-26T12:22:40.881Z,8.96
2024-01-26T12:25:14.657Z,8.94
2024-01-26T12:27:43.029Z,8.92
2024-01-26T12:30:13.175Z,8.92
2024-01-26T12:32:41.416Z,8.75
2024-01-26T12:35:10.281Z,8.72
2024-01-26T12:37:38.779Z,8.66
2024-01-26T12:40:08.141Z,8.53
2024-01-26T12:42:36.057Z,8.56
2024-01-26T12:45:04.045Z,8.42
2024-01-26T12:47:33.367Z,8.22
2024-01-26T12:50:02.199Z,8.42
2024-01-26T12:52:30.262Z,8.49
2024-01-26T12:54:58.278Z,8.47
2024-01-26T12:57:26.293Z,8.58
2024-01-26T12:59:54.262Z,8.55
2024-01-26T13:02:22.244Z,8.51
2024-01-26T13:04:54.159Z,8.58
2024-01-26T13:07:24.288Z,8.35
2024-01-26T13:09:52.479Z,8.60
2024-01-26T13:12:21.550Z,8.62
2024-01-26T13:14:49.736Z,8.63
2024-01-26T13:17:17.961Z,8.63
2024-01-26T13:19:46.072Z,8.51
2024-01-26T13:22:15.601Z,8.47
2024-01-26T13:24:43.553Z,8.55
2024-01-26T13:27:17.045Z,8.66
2024-01-26T13:29:48.490Z,8.78
2024-01-26T13:32:16.773Z,8.88
2024-01-26T13:34:45.005Z,9.03
2024-01-26T13:37:13.388Z,9.17
2024-01-26T13:39:42.706Z,9.25
2024-01-26T13:42:11.150Z,9.35
2024-01-26T13:44:39.158Z,9.24
2024-01-26T13:47:07.221Z,9.25
2024-01-26T13:49:35.262Z,8.89
2024-01-26T13:52:03.402Z,8.67
2024-01-26T13:54:31.428Z,8.38
2024-01-26T13:57:01.646Z,8.23
2024-01-26T13:59:29.766Z,8.16
2024-01-26T14:01:57.728Z,8.14
2024-01-26T14:04:25.705Z,8.03
2024-01-26T14:06:54.744Z,8.03
2024-01-26T14:09:22.897Z,7.82
2024-01-26T14:11:50.967Z,7.91
2024-01-26T14:14:23.799Z,7.90
2024-01-26T14:16:51.897Z,7.87
2024-01-26T14:19:20.432Z,7.92
2024-01-26T14:21:48.519Z,7.90
2024-01-26T14:24:16.522Z,7.87
2024-01-26T14:26:46.589Z,7.91
2024-01-26T14:29:17.079Z,7.82
2024-01-26T14:31:47.035Z,7.66
2024-01-26T14:34:15.246Z,7.65
2024-01-26T14:36:43.729Z,7.73
2024-01-26T14:39:14.026Z,7.65
2024-01-26T14:41:42.449Z,7.68
2024-01-26T14:44:10.430Z,7.46
2024-01-26T14:46:39.618Z,7.41
2024-01-26T14:49:09.524Z,7.04
2024-01-26T14:51:41.398Z,7.47
2024-01-26T14:54:09.523Z,7.55
2024-01-26T14:56:38.657Z,7.52
2024-01-26T14:59:06.975Z,7.46
2024-01-26T15:01:36.924Z,7.47
2024-01-26T15:04:06.344Z,7.36
2024-01-26T15:06:35.706Z,7.36
2024-01-26T15:09:06.669Z,7.28
2024-01-26T15:11:34.713Z,7.32
2024-01-26T15:14:02.606Z,7.18
2024-01-26T15:16:34.364Z,7.38
2024-01-26T15:19:02.640Z,7.27
2024-01-26T15:21:30.843Z,7.16
2024-01-26T15:24:00.501Z,7.40
2024-01-26T15:26:28.527Z,7.19
2024-01-26T15:28:56.543Z,7.24
2024-01-26T15:31:24.723Z,7.17
2024-01-26T15:33:52.863Z,7.15
2024-01-26T15:36:32.410Z,6.71
2024-01-26T15:39:01.749Z,7.08
2024-01-26T15:41:29.656Z,7.01
2024-01-26T15:43:58.595Z,7.08
2024-01-26T15:46:27.750Z,7.10
2024-01-26T15:48:55.989Z,7.20
2024-01-26T15:51:24.152Z,7.02
2024-01-26T15:53:52.155Z,6.94
2024-01-26T15:56:23.312Z,6.83
2024-01-26T15:58:51.593Z,6.72
2024-01-26T16:01:19.689Z,6.61
2024-01-26T16:03:50.648Z,6.63
2024-01-26T16:06:18.834Z,6.51
2024-01-26T16:08:47.192Z,6.49
2024-01-26T16:11:18.273Z,6.42
2024-01-26T16:13:47.919Z,6.53
2024-01-26T16:16:17.493Z,6.52
2024-01-26T16:18:46.165Z,6.47
2024-01-26T16:21:14.432Z,6.59
2024-01-26T16:23:42.443Z,6.40
2024-01-26T16:26:14.283Z,6.47
2024-01-26T16:28:42.198Z,6.62
2024-01-26T16:31:13.232Z,6.58
2024-01-26T16:33:41.437Z,6.56
2024-01-26T16:36:09.834Z,6.62
2024-01-26T16:38:40.541Z,6.25
2024-01-26T16:41:12.885Z,6.49
2024-01-26T16:43:40.919Z,6.52
2024-01-26T16:46:10.308Z,6.30
2024-01-26T16:48:39.989Z,6.52
2024-01-26T16:51:08.223Z,6.49
2024-01-26T16:53:36.455Z,6.45
2024-01-26T16:56:04.765Z,6.53
2024-01-26T16:58:32.764Z,6.64
2024-01-26T17:01:00.824Z,6.57
2024-01-26T17:03:29.119Z,6.54
2024-01-26T17:06:00.075Z,6.48
2024-01-26T17:08:30.426Z,6.44
2024-01-26T17:10:58.168Z,6.32
2024-01-26T17:13:28.182Z,6.36
2024-01-26T17:15:56.166Z,6.31
2024-01-26T17:18:24.288Z,6.32
2024-01-26T17:20:52.378Z,6.24
2024-01-26T17:23:22.588Z,6.09
2024-01-26T17:25:50.522Z,5.66
2024-01-26T17:28:18.566Z,6.16
2024-01-26T17:30:46.732Z,6.20
2024-01-26T17:33:16.389Z,6.16
2024-01-26T17:35:44.635Z,6.10
2024-01-26T17:38:12.825Z,5.98
2024-01-26T17:40:42.300Z,6.12
2024-01-26T17:43:10.464Z,5.95
2024-01-26T17:45:38.440Z,5.72
2024-01-26T17:48:07.538Z,5.99
2024-01-26T17:50:36.880Z,5.77
2024-01-26T17:53:05.408Z,5.66
2024-01-26T17:55:38.280Z,5.88
2024-01-26T17:58:09.284Z,5.64
2024-01-26T18:00:37.503Z,6.08
2024-01-26T18:03:06.216Z,5.98
2024-01-26T18:05:34.303Z,6.10
2024-01-26T18:08:02.505Z,6.10
2024-01-26T18:10:30.443Z,6.14
2024-01-26T18:12:58.969Z,6.16
2024-01-26T18:15:28.498Z,6.16
2024-01-26T18:17:56.695Z,6.18
2024-01-26T18:20:25.525Z,6.21
2024-01-26T18:22:54.705Z,6.26
2024-01-26T18:25:22.746Z,6.26
2024-01-26T18:27:51.001Z,6.18
2024-01-26T18:30:19.687Z,6.16
2024-01-26T18:32:49.324Z,6.21
2024-01-26T18:35:17.400Z,6.06
2024-01-26T18:37:45.979Z,6.19
2024-01-26T18:40:14.264Z,6.20
2024-01-26T18:42:42.662Z,6.12
2024-01-26T18:45:11.041Z,5.93
2024-01-26T18:47:39.187Z,5.47
2024-01-26T18:50:09.552Z,5.86
2024-01-26T18:52:37.680Z,5.53
2024-01-26T18:55:06.116Z,5.81
2024-01-26T18:57:34.309Z,5.75
2024-01-26T19:00:02.639Z,5.84
2024-01-26T19:02:30.891Z,5.79
2024-01-26T19:04:59.236Z,5.94
2024-01-26T19:07:28.558Z,5.75
2024-01-26T19:09:57.066Z,5.74
2024-01-26T19:12:27.298Z,5.87
2024-01-26T19:14:55.717Z,5.67
2024-01-26T19:17:24.148Z,5.69
2024-01-26T19:19:52.869Z,5.85
2024-01-26T19:22:22.913Z,5.42
2024-01-26T19:24:52.568Z,5.59
2024-01-26T19:27:21.559Z,5.98
2024-01-26T19:29:49.581Z,5.79
2024-01-26T19:32:17.456Z,5.66
2024-01-26T19:34:45.529Z,5.67
2024-01-26T19:37:13.663Z,5.63
2024-01-26T19:39:45.639Z,5.64
2024-01-26T19:42:15.348Z,5.89
2024-01-26T19:44:43.348Z,5.85
2024-01-26T19:47:11.315Z,5.68
2024-01-26T19:49:39.406Z,5.91
2024-01-26T19:52:07.744Z,5.71
2024-01-26T19:54:35.972Z,5.78
2024-01-26T19:57:06.985Z,5.89
2024-01-26T19:59:36.444Z,5.78
2024-01-26T20:02:04.795Z,5.78
2024-01-26T20:04:32.945Z,5.83
2024-01-26T20:07:01.605Z,5.84
2024-01-26T20:09:30.113Z,5.76
2024-01-26T20:11:58.350Z,5.71
2024-01-26T20:14:26.304Z,5.76
2024-01-26T20:16:55.905Z,5.73
2024-01-26T20:19:24.156Z,5.52
2024-01-26T20:21:52.969Z,5.62
2024-01-26T20:24:22.541Z,5.53
2024-01-26T20:26:50.709Z,5.69
2024-01-26T20:29:19.117Z,5.78
2024-01-26T20:31:48.922Z,5.57
2024-01-26T20:34:18.398Z,5.71
2024-01-26T20:36:46.586Z,5.63
2024-01-26T20:39:14.585Z,5.59
2024-01-26T20:41:42.601Z,5.68
2024-01-26T20:44:10.654Z,5.16
2024-01-26T20:46:38.636Z,5.39
2024-01-26T20:49:06.738Z,5.48
2024-01-26T20:51:36.319Z,5.37
2024-01-26T20:54:05.698Z,5.41
2024-01-26T20:56:34.904Z,5.47
2024-01-26T20:59:05.293Z,5.56
2024-01-26T21:01:35.506Z,5.01
2024-01-26T21:04:03.616Z,5.06
2024-01-26T21:06:31.570Z,5.44
2024-01-26T21:09:00.986Z,5.54
2024-01-26T21:11:30.055Z,5.51
2024-01-26T21:13:58.094Z,5.47
2024-01-26T21:16:27.418Z,5.41
2024-01-26T21:18:55.580Z,5.44
2024-01-26T21:21:23.729Z,5.54
2024-01-26T21:23:57.219Z,5.48
2024-01-26T21:26:27.638Z,5.52
2024-01-26T21:28:58.380Z,5.16
2024-01-26T21:31:29.200Z,5.46
2024-01-26T21:33:57.445Z,5.30
2024-01-26T21:36:25.717Z,5.24
2024-01-26T21:38:54.172Z,5.30
2024-01-26T21:41:22.534Z,5.32
2024-01-26T21:43:57.574Z,5.37
2024-01-26T21:46:25.841Z,5.44
2024-01-26T21:48:54.328Z,5.42
2024-01-26T21:51:24.888Z,5.03
2024-01-26T21:53:53.870Z,5.20
2024-01-26T21:56:22.206Z,5.48
2024-01-26T21:58:51.662Z,5.08
2024-01-26T22:01:19.721Z,4.86
2024-01-26T22:03:48.080Z,5.46
2024-01-26T22:06:16.249Z,5.38
2024-01-26T22:08:44.870Z,5.50
2024-01-26T22:11:12.860Z,5.62
2024-01-26T22:13:40.844Z,5.43
2024-01-26T22:16:11.069Z,5.40
2024-01-26T22:18:38.901Z,5.35
2024-01-26T22:21:07.369Z,4.84
2024-01-26T22:23:35.327Z,5.51
2024-01-26T22:26:06.067Z,5.10
2024-01-26T22:28:34.035Z,5.46
2024-01-26T22:31:02.058Z,5.48
2024-01-26T22:33:31.432Z,5.51
2024-01-26T22:36:00.258Z,5.46
2024-01-26T22:38:28.169Z,5.49
2024-01-26T22:40:56.188Z,5.45
2024-01-26T22:43:24.513Z,5.50
2024-01-26T22:45:55.507Z,5.36
2024-01-26T22:48:25.461Z,5.48
2024-01-26T22:50:55.018Z,5.42
2024-01-26T22:53:22.978Z,5.38
2024-01-26T22:55:53.740Z,5.52
2024-01-26T22:58:21.920Z,5.07
2024-01-26T23:00:50.432Z,5.45
2024-01-26T23:03:18.565Z,5.48
2024-01-26T23:05:49.733Z,4.98
2024-01-26T23:08:19.170Z,5.34
2024-01-26T23:10:47.134Z,5.48
2024-01-26T23:13:15.010Z,5.46
2024-01-26T23:15:43.037Z,5.31
2024-01-26T23:18:11.387Z,5.34
2024-01-26T23:20:39.567Z,5.27
2024-01-26T23:23:07.647Z,5.25
2024-01-26T23:25:37.156Z,5.36
2024-01-26T23:28:06.526Z,5.44
2024-01-26T23:30:37.209Z,5.51
2024-01-26T23:33:05.680Z,5.43
2024-01-26T23:35:34.647Z,5.49
2024-01-26T23:38:02.625Z,5.56
2024-01-26T23:40:30.604Z,5.34
2024-01-26T23:43:00.156Z,5.24
2024-01-26T23:45:29.290Z,5.25
2024-01-26T23:47:57.822Z,5.31
2024-01-26T23:50:26.026Z,5.36
2024-01-26T23:52:54.041Z,5.43
2024-01-26T23:55:22.091Z,5.38
2024-01-26T23:57:49.994Z,5.27
